sensor_id;sensor_type;location;lat;lon;timestamp;temperature;humidity
43999;DHT22;51319;52.162;5.302;2023-07-22T00:00:05;14.10;96.20
43999;DHT22;51319;52.162;5.302;2023-07-22T00:02:33;14.00;96.30
43999;DHT22;51319;52.162;5.302;2023-07-22T00:05:00;14.10;96.50
43999;DHT22;51319;52.162;5.302;2023-07-22T00:07:27;14.10;96.60
43999;DHT22;51319;52.162;5.302;2023-07-22T00:09:53;14.10;96.60
43999;DHT22;51319;52.162;5.302;2023-07-22T00:12:21;14.10;96.60
43999;DHT22;51319;52.162;5.302;2023-07-22T00:14:52;14.10;96.70
43999;DHT22;51319;52.162;5.302;2023-07-22T00:17:21;14.10;96.70
43999;DHT22;51319;52.162;5.302;2023-07-22T00:19:59;14.00;96.80
43999;DHT22;51319;52.162;5.302;2023-07-22T00:22:27;14.00;96.80
43999;DHT22;51319;52.162;5.302;2023-07-22T00:24:54;14.00;96.80
43999;DHT22;51319;52.162;5.302;2023-07-22T00:27:21;14.00;96.90
43999;DHT22;51319;52.162;5.302;2023-07-22T00:29:48;14.00;97.00
43999;DHT22;51319;52.162;5.302;2023-07-22T00:32:14;14.00;97.40
43999;DHT22;51319;52.162;5.302;2023-07-22T00:34:41;13.90;97.10
43999;DHT22;51319;52.162;5.302;2023-07-22T00:37:08;13.80;97.20
43999;DHT22;51319;52.162;5.302;2023-07-22T00:39:54;13.90;97.40
43999;DHT22;51319;52.162;5.302;2023-07-22T00:42:21;13.80;97.50
43999;DHT22;51319;52.162;5.302;2023-07-22T00:44:49;13.80;97.50
43999;DHT22;51319;52.162;5.302;2023-07-22T00:47:16;13.90;97.60
43999;DHT22;51319;52.162;5.302;2023-07-22T00:49:47;13.80;97.60
43999;DHT22;51319;52.162;5.302;2023-07-22T00:52:14;13.90;97.60
43999;DHT22;51319;52.162;5.302;2023-07-22T00:54:41;13.90;97.70
43999;DHT22;51319;52.162;5.302;2023-07-22T00:57:09;13.90;97.70
43999;DHT22;51319;52.162;5.302;2023-07-22T00:59:37;14.00;97.70
43999;DHT22;51319;52.162;5.302;2023-07-22T01:02:04;14.00;97.70
43999;DHT22;51319;52.162;5.302;2023-07-22T01:04:33;14.10;97.80
43999;DHT22;51319;52.162;5.302;2023-07-22T01:07:02;14.10;97.80
43999;DHT22;51319;52.162;5.302;2023-07-22T01:09:37;14.10;97.70
43999;DHT22;51319;52.162;5.302;2023-07-22T01:12:05;14.10;97.70
43999;DHT22;51319;52.162;5.302;2023-07-22T01:14:37;14.20;97.60
43999;DHT22;51319;52.162;5.302;2023-07-22T01:17:06;14.10;97.50
43999;DHT22;51319;52.162;5.302;2023-07-22T01:19:34;14.10;97.50
43999;DHT22;51319;52.162;5.302;2023-07-22T01:22:04;14.10;97.60
43999;DHT22;51319;52.162;5.302;2023-07-22T01:24:32;14.10;97.60
43999;DHT22;51319;52.162;5.302;2023-07-22T01:26:59;14.10;97.70
43999;DHT22;51319;52.162;5.302;2023-07-22T01:29:27;14.00;97.60
43999;DHT22;51319;52.162;5.302;2023-07-22T01:31:54;14.00;97.70
43999;DHT22;51319;52.162;5.302;2023-07-22T01:34:22;14.00;97.70
43999;DHT22;51319;52.162;5.302;2023-07-22T01:36:51;13.90;97.80
43999;DHT22;51319;52.162;5.302;2023-07-22T01:39:19;13.90;97.90
43999;DHT22;51319;52.162;5.302;2023-07-22T01:41:46;13.80;97.90
43999;DHT22;51319;52.162;5.302;2023-07-22T01:44:14;13.80;97.90
43999;DHT22;51319;52.162;5.302;2023-07-22T01:46:41;13.80;98.00
43999;DHT22;51319;52.162;5.302;2023-07-22T01:49:12;13.80;98.10
43999;DHT22;51319;52.162;5.302;2023-07-22T01:51:39;13.70;98.10
43999;DHT22;51319;52.162;5.302;2023-07-22T01:54:07;13.70;98.10
43999;DHT22;51319;52.162;5.302;2023-07-22T01:56:39;13.70;98.10
43999;DHT22;51319;52.162;5.302;2023-07-22T01:59:06;13.60;98.20
43999;DHT22;51319;52.162;5.302;2023-07-22T02:01:33;13.60;98.20
43999;DHT22;51319;52.162;5.302;2023-07-22T02:04:00;13.60;98.20
43999;DHT22;51319;52.162;5.302;2023-07-22T02:06:28;13.60;98.30
43999;DHT22;51319;52.162;5.302;2023-07-22T02:08:56;13.60;98.30
43999;DHT22;51319;52.162;5.302;2023-07-22T02:11:23;13.60;98.30
43999;DHT22;51319;52.162;5.302;2023-07-22T02:13:50;13.60;98.30
43999;DHT22;51319;52.162;5.302;2023-07-22T02:16:21;13.60;98.30
43999;DHT22;51319;52.162;5.302;2023-07-22T02:18:48;13.60;98.50
43999;DHT22;51319;52.162;5.302;2023-07-22T02:21:15;13.60;98.40
43999;DHT22;51319;52.162;5.302;2023-07-22T02:23:42;13.70;98.50
43999;DHT22;51319;52.162;5.302;2023-07-22T02:26:09;13.70;98.50
43999;DHT22;51319;52.162;5.302;2023-07-22T02:28:37;13.70;98.50
43999;DHT22;51319;52.162;5.302;2023-07-22T02:31:04;13.70;98.50
43999;DHT22;51319;52.162;5.302;2023-07-22T02:33:33;13.60;98.50
43999;DHT22;51319;52.162;5.302;2023-07-22T02:36:00;13.60;98.60
43999;DHT22;51319;52.162;5.302;2023-07-22T02:38:27;13.60;98.60
43999;DHT22;51319;52.162;5.302;2023-07-22T02:40:54;13.60;98.70
43999;DHT22;51319;52.162;5.302;2023-07-22T02:43:43;13.60;98.80
43999;DHT22;51319;52.162;5.302;2023-07-22T02:46:10;13.50;99.00
43999;DHT22;51319;52.162;5.302;2023-07-22T02:48:37;13.50;99.00
43999;DHT22;51319;52.162;5.302;2023-07-22T02:51:09;13.50;99.10
43999;DHT22;51319;52.162;5.302;2023-07-22T02:53:39;13.50;99.20
43999;DHT22;51319;52.162;5.302;2023-07-22T02:56:08;13.50;99.30
43999;DHT22;51319;52.162;5.302;2023-07-22T02:58:41;13.50;99.30
43999;DHT22;51319;52.162;5.302;2023-07-22T03:01:08;13.60;99.30
43999;DHT22;51319;52.162;5.302;2023-07-22T03:03:40;13.50;99.40
43999;DHT22;51319;52.162;5.302;2023-07-22T03:06:07;13.50;99.60
43999;DHT22;51319;52.162;5.302;2023-07-22T03:08:36;13.50;99.40
43999;DHT22;51319;52.162;5.302;2023-07-22T03:11:03;13.50;99.40
43999;DHT22;51319;52.162;5.302;2023-07-22T03:13:30;13.50;99.40
43999;DHT22;51319;52.162;5.302;2023-07-22T03:15:58;13.50;99.70
43999;DHT22;51319;52.162;5.302;2023-07-22T03:18:25;13.50;99.40
43999;DHT22;51319;52.162;5.302;2023-07-22T03:21:00;13.50;99.50
43999;DHT22;51319;52.162;5.302;2023-07-22T03:23:27;13.50;99.50
43999;DHT22;51319;52.162;5.302;2023-07-22T03:25:55;13.50;99.60
43999;DHT22;51319;52.162;5.302;2023-07-22T03:28:22;13.50;99.60
43999;DHT22;51319;52.162;5.302;2023-07-22T03:30:56;13.50;99.70
43999;DHT22;51319;52.162;5.302;2023-07-22T03:33:23;13.50;99.70
43999;DHT22;51319;52.162;5.302;2023-07-22T03:35:50;13.50;99.70
43999;DHT22;51319;52.162;5.302;2023-07-22T03:38:17;13.50;99.70
43999;DHT22;51319;52.162;5.302;2023-07-22T03:40:44;13.50;99.70
43999;DHT22;51319;52.162;5.302;2023-07-22T03:43:11;13.50;99.80
43999;DHT22;51319;52.162;5.302;2023-07-22T03:45:38;13.50;99.80
43999;DHT22;51319;52.162;5.302;2023-07-22T03:48:05;13.50;99.80
43999;DHT22;51319;52.162;5.302;2023-07-22T03:50:32;13.40;99.80
43999;DHT22;51319;52.162;5.302;2023-07-22T03:53:00;13.40;99.90
43999;DHT22;51319;52.162;5.302;2023-07-22T03:55:27;13.50;99.90
43999;DHT22;51319;52.162;5.302;2023-07-22T03:57:54;13.40;99.90
43999;DHT22;51319;52.162;5.302;2023-07-22T04:00:21;13.50;99.90
43999;DHT22;51319;52.162;5.302;2023-07-22T04:02:48;13.40;99.90
43999;DHT22;51319;52.162;5.302;2023-07-22T04:05:15;13.50;99.90
43999;DHT22;51319;52.162;5.302;2023-07-22T04:07:44;13.40;99.90
43999;DHT22;51319;52.162;5.302;2023-07-22T04:10:11;13.50;99.90
43999;DHT22;51319;52.162;5.302;2023-07-22T04:12:38;13.50;99.90
43999;DHT22;51319;52.162;5.302;2023-07-22T04:15:10;13.50;99.90
43999;DHT22;51319;52.162;5.302;2023-07-22T04:17:37;13.60;99.90
43999;DHT22;51319;52.162;5.302;2023-07-22T04:20:04;13.60;99.90
43999;DHT22;51319;52.162;5.302;2023-07-22T04:22:33;13.60;99.90
43999;DHT22;51319;52.162;5.302;2023-07-22T04:25:00;13.70;99.90
43999;DHT22;51319;52.162;5.302;2023-07-22T04:27:28;13.70;99.90
43999;DHT22;51319;52.162;5.302;2023-07-22T04:29:55;13.80;99.90
43999;DHT22;51319;52.162;5.302;2023-07-22T04:32:22;13.80;99.90
43999;DHT22;51319;52.162;5.302;2023-07-22T04:34:49;13.90;99.80
43999;DHT22;51319;52.162;5.302;2023-07-22T04:37:17;13.90;99.80
43999;DHT22;51319;52.162;5.302;2023-07-22T04:39:48;14.00;99.80
43999;DHT22;51319;52.162;5.302;2023-07-22T04:42:17;14.00;99.80
43999;DHT22;51319;52.162;5.302;2023-07-22T04:44:44;14.10;99.70
43999;DHT22;51319;52.162;5.302;2023-07-22T04:47:11;14.10;99.60
43999;DHT22;51319;52.162;5.302;2023-07-22T04:49:38;14.20;99.60
43999;DHT22;51319;52.162;5.302;2023-07-22T04:52:06;14.30;99.40
43999;DHT22;51319;52.162;5.302;2023-07-22T04:54:33;14.30;99.30
43999;DHT22;51319;52.162;5.302;2023-07-22T04:57:00;14.40;99.20
43999;DHT22;51319;52.162;5.302;2023-07-22T04:59:30;14.40;99.20
43999;DHT22;51319;52.162;5.302;2023-07-22T05:01:58;14.50;99.20
43999;DHT22;51319;52.162;5.302;2023-07-22T05:04:25;14.50;99.20
43999;DHT22;51319;52.162;5.302;2023-07-22T05:06:52;14.60;99.10
43999;DHT22;51319;52.162;5.302;2023-07-22T05:09:19;14.70;99.20
43999;DHT22;51319;52.162;5.302;2023-07-22T05:11:46;14.80;99.10
43999;DHT22;51319;52.162;5.302;2023-07-22T05:14:17;14.80;99.00
43999;DHT22;51319;52.162;5.302;2023-07-22T05:16:44;14.90;98.90
43999;DHT22;51319;52.162;5.302;2023-07-22T05:19:11;14.90;98.90
43999;DHT22;51319;52.162;5.302;2023-07-22T05:21:38;15.00;98.90
43999;DHT22;51319;52.162;5.302;2023-07-22T05:24:05;15.00;98.90
43999;DHT22;51319;52.162;5.302;2023-07-22T05:26:32;15.10;98.80
43999;DHT22;51319;52.162;5.302;2023-07-22T05:28:59;15.10;98.80
43999;DHT22;51319;52.162;5.302;2023-07-22T05:31:25;15.10;98.80
43999;DHT22;51319;52.162;5.302;2023-07-22T05:33:53;15.20;98.90
43999;DHT22;51319;52.162;5.302;2023-07-22T05:36:20;15.30;98.90
43999;DHT22;51319;52.162;5.302;2023-07-22T05:38:48;15.30;98.90
43999;DHT22;51319;52.162;5.302;2023-07-22T05:41:15;15.30;98.80
43999;DHT22;51319;52.162;5.302;2023-07-22T05:43:42;15.40;98.80
43999;DHT22;51319;52.162;5.302;2023-07-22T05:46:08;15.50;98.70
43999;DHT22;51319;52.162;5.302;2023-07-22T05:48:36;15.50;98.50
43999;DHT22;51319;52.162;5.302;2023-07-22T05:51:03;15.50;98.50
43999;DHT22;51319;52.162;5.302;2023-07-22T05:53:32;15.60;98.50
43999;DHT22;51319;52.162;5.302;2023-07-22T05:55:59;15.60;98.50
43999;DHT22;51319;52.162;5.302;2023-07-22T05:58:26;15.70;98.50
43999;DHT22;51319;52.162;5.302;2023-07-22T06:00:54;15.80;98.40
43999;DHT22;51319;52.162;5.302;2023-07-22T06:03:24;15.90;98.40
43999;DHT22;51319;52.162;5.302;2023-07-22T06:05:51;16.00;98.40
43999;DHT22;51319;52.162;5.302;2023-07-22T06:08:18;16.10;98.30
43999;DHT22;51319;52.162;5.302;2023-07-22T06:10:47;16.20;98.00
43999;DHT22;51319;52.162;5.302;2023-07-22T06:13:14;16.30;97.80
43999;DHT22;51319;52.162;5.302;2023-07-22T06:15:41;16.50;97.50
43999;DHT22;51319;52.162;5.302;2023-07-22T06:18:08;16.60;97.30
43999;DHT22;51319;52.162;5.302;2023-07-22T06:20:36;16.70;97.00
43999;DHT22;51319;52.162;5.302;2023-07-22T06:23:03;16.80;96.80
43999;DHT22;51319;52.162;5.302;2023-07-22T06:25:30;17.00;96.60
43999;DHT22;51319;52.162;5.302;2023-07-22T06:27:57;17.20;96.20
43999;DHT22;51319;52.162;5.302;2023-07-22T06:30:24;17.40;95.90
43999;DHT22;51319;52.162;5.302;2023-07-22T06:32:51;17.90;95.40
43999;DHT22;51319;52.162;5.302;2023-07-22T06:35:18;18.30;94.50
43999;DHT22;51319;52.162;5.302;2023-07-22T06:37:45;18.40;93.60
43999;DHT22;51319;52.162;5.302;2023-07-22T06:40:12;18.40;93.10
43999;DHT22;51319;52.162;5.302;2023-07-22T06:42:39;18.50;92.90
43999;DHT22;51319;52.162;5.302;2023-07-22T06:45:07;18.50;92.50
43999;DHT22;51319;52.162;5.302;2023-07-22T06:47:34;18.60;92.40
43999;DHT22;51319;52.162;5.302;2023-07-22T06:50:03;18.90;92.20
43999;DHT22;51319;52.162;5.302;2023-07-22T06:52:31;19.30;91.40
43999;DHT22;51319;52.162;5.302;2023-07-22T06:54:59;19.90;90.60
43999;DHT22;51319;52.162;5.302;2023-07-22T06:57:26;20.10;89.00
43999;DHT22;51319;52.162;5.302;2023-07-22T06:59:54;20.10;87.70
43999;DHT22;51319;52.162;5.302;2023-07-22T07:02:41;20.10;86.70
43999;DHT22;51319;52.162;5.302;2023-07-22T07:05:08;20.00;86.50
43999;DHT22;51319;52.162;5.302;2023-07-22T07:07:35;20.40;86.30
43999;DHT22;51319;52.162;5.302;2023-07-22T07:10:02;20.30;85.30
43999;DHT22;51319;52.162;5.302;2023-07-22T07:12:29;20.00;85.30
43999;DHT22;51319;52.162;5.302;2023-07-22T07:14:56;19.90;85.70
43999;DHT22;51319;52.162;5.302;2023-07-22T07:17:23;20.00;86.00
43999;DHT22;51319;52.162;5.302;2023-07-22T07:19:51;20.40;86.00
43999;DHT22;51319;52.162;5.302;2023-07-22T07:22:17;20.50;84.20
43999;DHT22;51319;52.162;5.302;2023-07-22T07:24:44;20.40;83.80
43999;DHT22;51319;52.162;5.302;2023-07-22T07:27:11;20.40;83.90
43999;DHT22;51319;52.162;5.302;2023-07-22T07:29:39;20.20;83.80
43999;DHT22;51319;52.162;5.302;2023-07-22T07:32:20;20.00;84.20
43999;DHT22;51319;52.162;5.302;2023-07-22T07:34:48;19.90;85.00
43999;DHT22;51319;52.162;5.302;2023-07-22T07:37:15;20.00;85.50
43999;DHT22;51319;52.162;5.302;2023-07-22T07:39:42;20.10;85.20
43999;DHT22;51319;52.162;5.302;2023-07-22T07:42:09;20.30;84.90
43999;DHT22;51319;52.162;5.302;2023-07-22T07:44:36;20.50;84.30
43999;DHT22;51319;52.162;5.302;2023-07-22T07:47:03;20.60;83.60
43999;DHT22;51319;52.162;5.302;2023-07-22T07:49:32;20.60;83.40
43999;DHT22;51319;52.162;5.302;2023-07-22T07:52:00;20.60;83.20
43999;DHT22;51319;52.162;5.302;2023-07-22T07:54:26;20.70;83.00
43999;DHT22;51319;52.162;5.302;2023-07-22T08:02:22;20.90;80.90
43999;DHT22;51319;52.162;5.302;2023-07-22T08:04:49;21.10;80.40
43999;DHT22;51319;52.162;5.302;2023-07-22T08:07:16;21.40;79.10
43999;DHT22;51319;52.162;5.302;2023-07-22T08:09:43;22.20;77.70
43999;DHT22;51319;52.162;5.302;2023-07-22T08:12:14;23.30;74.80
43999;DHT22;51319;52.162;5.302;2023-07-22T08:14:41;24.20;72.20
43999;DHT22;51319;52.162;5.302;2023-07-22T08:17:08;24.90;68.80
43999;DHT22;51319;52.162;5.302;2023-07-22T08:19:35;25.10;66.50
43999;DHT22;51319;52.162;5.302;2023-07-22T08:22:03;25.20;65.40
43999;DHT22;51319;52.162;5.302;2023-07-22T08:24:30;25.40;63.80
43999;DHT22;51319;52.162;5.302;2023-07-22T08:26:57;25.50;63.70
43999;DHT22;51319;52.162;5.302;2023-07-22T08:29:24;26.60;61.30
43999;DHT22;51319;52.162;5.302;2023-07-22T08:31:51;26.90;60.20
43999;DHT22;51319;52.162;5.302;2023-07-22T08:34:18;27.00;59.40
43999;DHT22;51319;52.162;5.302;2023-07-22T08:36:46;26.80;58.90
43999;DHT22;51319;52.162;5.302;2023-07-22T08:39:13;26.40;57.90
43999;DHT22;51319;52.162;5.302;2023-07-22T08:41:40;26.20;58.70
43999;DHT22;51319;52.162;5.302;2023-07-22T08:44:13;26.00;58.90
43999;DHT22;51319;52.162;5.302;2023-07-22T08:46:43;25.80;58.80
43999;DHT22;51319;52.162;5.302;2023-07-22T08:49:11;26.00;58.20
43999;DHT22;51319;52.162;5.302;2023-07-22T08:51:39;26.20;57.90
43999;DHT22;51319;52.162;5.302;2023-07-22T08:54:08;26.30;57.50
43999;DHT22;51319;52.162;5.302;2023-07-22T08:56:38;26.10;57.50
43999;DHT22;51319;52.162;5.302;2023-07-22T08:59:06;25.90;58.80
43999;DHT22;51319;52.162;5.302;2023-07-22T09:01:34;25.70;58.10
43999;DHT22;51319;52.162;5.302;2023-07-22T09:04:04;25.40;57.80
43999;DHT22;51319;52.162;5.302;2023-07-22T09:06:33;25.20;57.70
43999;DHT22;51319;52.162;5.302;2023-07-22T09:09:05;25.20;58.40
43999;DHT22;51319;52.162;5.302;2023-07-22T09:11:35;24.90;58.40
43999;DHT22;51319;52.162;5.302;2023-07-22T09:14:03;24.70;58.90
43999;DHT22;51319;52.162;5.302;2023-07-22T09:16:35;24.50;59.10
43999;DHT22;51319;52.162;5.302;2023-07-22T09:19:04;24.30;59.40
43999;DHT22;51319;52.162;5.302;2023-07-22T09:21:32;24.30;60.20
43999;DHT22;51319;52.162;5.302;2023-07-22T09:24:23;24.20;60.20
43999;DHT22;51319;52.162;5.302;2023-07-22T09:26:51;24.10;59.80
43999;DHT22;51319;52.162;5.302;2023-07-22T09:29:18;24.00;60.10
43999;DHT22;51319;52.162;5.302;2023-07-22T09:31:58;23.90;60.40
43999;DHT22;51319;52.162;5.302;2023-07-22T09:34:25;23.90;60.20
43999;DHT22;51319;52.162;5.302;2023-07-22T09:36:54;23.90;60.10
43999;DHT22;51319;52.162;5.302;2023-07-22T09:39:23;23.80;60.60
43999;DHT22;51319;52.162;5.302;2023-07-22T09:41:50;23.80;61.10
43999;DHT22;51319;52.162;5.302;2023-07-22T09:44:19;23.70;61.50
43999;DHT22;51319;52.162;5.302;2023-07-22T09:46:47;23.50;61.80
43999;DHT22;51319;52.162;5.302;2023-07-22T09:49:17;23.30;62.30
43999;DHT22;51319;52.162;5.302;2023-07-22T09:51:45;23.10;62.20
43999;DHT22;51319;52.162;5.302;2023-07-22T09:54:28;22.90;62.20
43999;DHT22;51319;52.162;5.302;2023-07-22T09:56:58;22.70;62.90
43999;DHT22;51319;52.162;5.302;2023-07-22T09:59:28;22.70;63.20
43999;DHT22;51319;52.162;5.302;2023-07-22T10:01:56;22.80;63.50
43999;DHT22;51319;52.162;5.302;2023-07-22T10:04:28;22.90;63.10
43999;DHT22;51319;52.162;5.302;2023-07-22T10:06:58;22.90;62.90
43999;DHT22;51319;52.162;5.302;2023-07-22T10:09:27;23.00;62.70
43999;DHT22;51319;52.162;5.302;2023-07-22T10:11:55;23.10;62.40
43999;DHT22;51319;52.162;5.302;2023-07-22T10:14:22;23.10;62.30
43999;DHT22;51319;52.162;5.302;2023-07-22T10:16:49;23.00;61.30
43999;DHT22;51319;52.162;5.302;2023-07-22T10:19:19;23.00;62.10
43999;DHT22;51319;52.162;5.302;2023-07-22T10:21:46;23.20;61.90
43999;DHT22;51319;52.162;5.302;2023-07-22T10:24:14;23.40;61.30
43999;DHT22;51319;52.162;5.302;2023-07-22T10:26:41;23.60;61.70
43999;DHT22;51319;52.162;5.302;2023-07-22T10:29:14;23.60;61.10
43999;DHT22;51319;52.162;5.302;2023-07-22T10:31:41;23.50;60.30
43999;DHT22;51319;52.162;5.302;2023-07-22T10:34:10;23.40;60.90
43999;DHT22;51319;52.162;5.302;2023-07-22T10:36:37;23.20;60.70
43999;DHT22;51319;52.162;5.302;2023-07-22T10:39:04;23.10;60.80
43999;DHT22;51319;52.162;5.302;2023-07-22T10:41:32;23.00;61.30
43999;DHT22;51319;52.162;5.302;2023-07-22T10:44:06;22.90;61.40
43999;DHT22;51319;52.162;5.302;2023-07-22T10:46:38;22.80;61.80
43999;DHT22;51319;52.162;5.302;2023-07-22T10:49:13;22.80;62.30
43999;DHT22;51319;52.162;5.302;2023-07-22T10:51:41;22.70;62.30
43999;DHT22;51319;52.162;5.302;2023-07-22T10:54:31;22.50;62.70
43999;DHT22;51319;52.162;5.302;2023-07-22T10:57:04;22.30;63.40
43999;DHT22;51319;52.162;5.302;2023-07-22T10:59:52;22.20;63.50
43999;DHT22;51319;52.162;5.302;2023-07-22T11:02:29;22.00;63.00
43999;DHT22;51319;52.162;5.302;2023-07-22T11:05:02;21.80;62.30
43999;DHT22;51319;52.162;5.302;2023-07-22T11:07:42;21.70;62.60
43999;DHT22;51319;52.162;5.302;2023-07-22T11:10:18;21.60;63.00
43999;DHT22;51319;52.162;5.302;2023-07-22T11:12:47;21.50;63.40
43999;DHT22;51319;52.162;5.302;2023-07-22T11:15:15;21.40;63.70
43999;DHT22;51319;52.162;5.302;2023-07-22T11:20:30;21.20;66.50
43999;DHT22;51319;52.162;5.302;2023-07-22T11:23:01;20.90;68.00
43999;DHT22;51319;52.162;5.302;2023-07-22T11:25:34;20.70;69.00
43999;DHT22;51319;52.162;5.302;2023-07-22T11:28:01;20.50;70.10
43999;DHT22;51319;52.162;5.302;2023-07-22T11:30:29;20.30;71.20
43999;DHT22;51319;52.162;5.302;2023-07-22T11:32:58;20.20;72.10
43999;DHT22;51319;52.162;5.302;2023-07-22T11:35:27;20.00;72.80
43999;DHT22;51319;52.162;5.302;2023-07-22T11:38:02;20.00;73.70
43999;DHT22;51319;52.162;5.302;2023-07-22T11:40:33;19.90;74.30
43999;DHT22;51319;52.162;5.302;2023-07-22T11:43:00;19.90;74.60
43999;DHT22;51319;52.162;5.302;2023-07-22T11:47:58;20.30;74.70
43999;DHT22;51319;52.162;5.302;2023-07-22T11:50:35;20.40;74.30
43999;DHT22;51319;52.162;5.302;2023-07-22T11:53:02;20.50;74.30
43999;DHT22;51319;52.162;5.302;2023-07-22T11:55:29;20.50;73.70
43999;DHT22;51319;52.162;5.302;2023-07-22T11:58:02;20.30;73.80
43999;DHT22;51319;52.162;5.302;2023-07-22T12:00:32;20.20;74.80
43999;DHT22;51319;52.162;5.302;2023-07-22T12:03:06;20.10;75.70
43999;DHT22;51319;52.162;5.302;2023-07-22T12:05:35;20.00;77.20
43999;DHT22;51319;52.162;5.302;2023-07-22T12:08:04;19.80;77.60
43999;DHT22;51319;52.162;5.302;2023-07-22T12:10:31;19.60;78.70
43999;DHT22;51319;52.162;5.302;2023-07-22T12:13:00;19.50;80.10
43999;DHT22;51319;52.162;5.302;2023-07-22T12:15:27;19.40;81.50
43999;DHT22;51319;52.162;5.302;2023-07-22T12:17:56;19.40;82.30
43999;DHT22;51319;52.162;5.302;2023-07-22T12:20:30;19.50;82.60
43999;DHT22;51319;52.162;5.302;2023-07-22T12:22:58;19.40;83.90
43999;DHT22;51319;52.162;5.302;2023-07-22T12:25:25;19.30;84.00
43999;DHT22;51319;52.162;5.302;2023-07-22T12:27:52;19.30;84.80
43999;DHT22;51319;52.162;5.302;2023-07-22T12:30:20;19.20;85.50
43999;DHT22;51319;52.162;5.302;2023-07-22T12:32:47;19.20;86.40
43999;DHT22;51319;52.162;5.302;2023-07-22T12:35:15;19.20;87.50
43999;DHT22;51319;52.162;5.302;2023-07-22T12:37:42;19.30;88.90
43999;DHT22;51319;52.162;5.302;2023-07-22T12:40:09;19.30;89.50
43999;DHT22;51319;52.162;5.302;2023-07-22T12:42:39;19.20;90.10
43999;DHT22;51319;52.162;5.302;2023-07-22T12:45:07;19.10;90.00
43999;DHT22;51319;52.162;5.302;2023-07-22T12:47:35;19.10;90.20
43999;DHT22;51319;52.162;5.302;2023-07-22T12:50:02;19.10;90.40
43999;DHT22;51319;52.162;5.302;2023-07-22T12:52:29;19.00;90.40
43999;DHT22;51319;52.162;5.302;2023-07-22T12:54:56;19.00;90.80
43999;DHT22;51319;52.162;5.302;2023-07-22T12:57:23;19.10;91.30
43999;DHT22;51319;52.162;5.302;2023-07-22T12:59:50;19.20;91.60
43999;DHT22;51319;52.162;5.302;2023-07-22T13:02:17;19.40;91.80
43999;DHT22;51319;52.162;5.302;2023-07-22T13:04:44;19.50;91.90
43999;DHT22;51319;52.162;5.302;2023-07-22T13:07:11;19.70;91.60
43999;DHT22;51319;52.162;5.302;2023-07-22T13:09:40;19.70;91.20
43999;DHT22;51319;52.162;5.302;2023-07-22T13:12:09;19.60;91.00
43999;DHT22;51319;52.162;5.302;2023-07-22T13:14:36;19.60;91.30
43999;DHT22;51319;52.162;5.302;2023-07-22T13:17:05;19.60;91.80
43999;DHT22;51319;52.162;5.302;2023-07-22T13:19:34;19.70;91.60
43999;DHT22;51319;52.162;5.302;2023-07-22T13:22:01;19.70;91.40
43999;DHT22;51319;52.162;5.302;2023-07-22T13:24:27;19.70;91.10
43999;DHT22;51319;52.162;5.302;2023-07-22T13:26:56;19.60;90.90
43999;DHT22;51319;52.162;5.302;2023-07-22T13:29:24;19.60;90.50
43999;DHT22;51319;52.162;5.302;2023-07-22T13:31:51;19.40;88.70
43999;DHT22;51319;52.162;5.302;2023-07-22T13:34:18;19.30;88.00
43999;DHT22;51319;52.162;5.302;2023-07-22T13:36:46;19.30;86.70
43999;DHT22;51319;52.162;5.302;2023-07-22T13:39:14;19.20;85.40
43999;DHT22;51319;52.162;5.302;2023-07-22T13:41:40;19.20;85.10
43999;DHT22;51319;52.162;5.302;2023-07-22T13:44:08;19.10;85.10
43999;DHT22;51319;52.162;5.302;2023-07-22T13:46:37;19.10;84.00
43999;DHT22;51319;52.162;5.302;2023-07-22T13:49:04;19.10;83.20
43999;DHT22;51319;52.162;5.302;2023-07-22T13:51:31;19.10;82.70
43999;DHT22;51319;52.162;5.302;2023-07-22T13:53:58;19.10;82.60
43999;DHT22;51319;52.162;5.302;2023-07-22T13:56:25;19.20;83.10
43999;DHT22;51319;52.162;5.302;2023-07-22T13:58:54;19.30;83.60
43999;DHT22;51319;52.162;5.302;2023-07-22T14:01:24;19.40;83.30
43999;DHT22;51319;52.162;5.302;2023-07-22T14:03:51;19.40;83.40
43999;DHT22;51319;52.162;5.302;2023-07-22T14:06:18;19.40;83.00
43999;DHT22;51319;52.162;5.302;2023-07-22T14:08:46;19.40;83.40
43999;DHT22;51319;52.162;5.302;2023-07-22T14:11:12;19.40;83.60
43999;DHT22;51319;52.162;5.302;2023-07-22T14:13:39;19.40;83.50
43999;DHT22;51319;52.162;5.302;2023-07-22T14:16:06;19.50;83.40
43999;DHT22;51319;52.162;5.302;2023-07-22T14:18:48;19.60;83.10
43999;DHT22;51319;52.162;5.302;2023-07-22T14:21:15;19.80;82.60
43999;DHT22;51319;52.162;5.302;2023-07-22T14:26:22;20.10;81.40
43999;DHT22;51319;52.162;5.302;2023-07-22T14:28:49;20.30;80.80
43999;DHT22;51319;52.162;5.302;2023-07-22T14:31:18;20.30;80.60
43999;DHT22;51319;52.162;5.302;2023-07-22T14:33:45;20.30;80.80
43999;DHT22;51319;52.162;5.302;2023-07-22T14:36:12;20.30;80.60
43999;DHT22;51319;52.162;5.302;2023-07-22T14:38:41;20.40;80.60
43999;DHT22;51319;52.162;5.302;2023-07-22T14:41:08;20.50;80.90
43999;DHT22;51319;52.162;5.302;2023-07-22T14:43:35;20.60;80.80
43999;DHT22;51319;52.162;5.302;2023-07-22T14:46:02;20.70;80.00
43999;DHT22;51319;52.162;5.302;2023-07-22T14:48:29;20.70;79.70
43999;DHT22;51319;52.162;5.302;2023-07-22T14:50:59;20.70;79.20
43999;DHT22;51319;52.162;5.302;2023-07-22T14:53:27;20.60;78.60
43999;DHT22;51319;52.162;5.302;2023-07-22T14:55:54;20.50;78.20
43999;DHT22;51319;52.162;5.302;2023-07-22T14:58:21;20.50;78.10
43999;DHT22;51319;52.162;5.302;2023-07-22T15:00:48;20.50;78.20
43999;DHT22;51319;52.162;5.302;2023-07-22T15:03:16;20.40;78.50
43999;DHT22;51319;52.162;5.302;2023-07-22T15:05:44;20.20;78.30
43999;DHT22;51319;52.162;5.302;2023-07-22T15:08:11;20.20;78.40
43999;DHT22;51319;52.162;5.302;2023-07-22T15:10:38;20.10;78.90
43999;DHT22;51319;52.162;5.302;2023-07-22T15:13:05;20.00;79.50
43999;DHT22;51319;52.162;5.302;2023-07-22T15:15:32;19.90;80.00
43999;DHT22;51319;52.162;5.302;2023-07-22T15:17:59;19.90;80.60
43999;DHT22;51319;52.162;5.302;2023-07-22T15:20:26;19.90;81.30
43999;DHT22;51319;52.162;5.302;2023-07-22T15:22:53;19.90;81.70
43999;DHT22;51319;52.162;5.302;2023-07-22T15:25:20;19.90;81.50
43999;DHT22;51319;52.162;5.302;2023-07-22T15:27:47;19.80;80.30
43999;DHT22;51319;52.162;5.302;2023-07-22T15:30:14;19.70;79.00
43999;DHT22;51319;52.162;5.302;2023-07-22T15:32:41;19.70;79.30
43999;DHT22;51319;52.162;5.302;2023-07-22T15:35:09;19.60;78.90
43999;DHT22;51319;52.162;5.302;2023-07-22T15:37:36;19.60;78.30
43999;DHT22;51319;52.162;5.302;2023-07-22T15:40:03;19.50;77.80
43999;DHT22;51319;52.162;5.302;2023-07-22T15:42:30;19.50;77.80
43999;DHT22;51319;52.162;5.302;2023-07-22T15:44:57;19.50;77.70
43999;DHT22;51319;52.162;5.302;2023-07-22T15:47:25;19.50;77.60
43999;DHT22;51319;52.162;5.302;2023-07-22T15:49:52;19.40;77.50